sensor_id;sensor_type;location;lat;lon;timestamp;temperature;humidity
14723;DHT22;7452;55.594;12.986;2023-04-30T00:01:25;7.10;99.90
14723;DHT22;7452;55.594;12.986;2023-04-30T00:03:52;7.10;99.90
14723;DHT22;7452;55.594;12.986;2023-04-30T00:06:19;7.10;99.90
14723;DHT22;7452;55.594;12.986;2023-04-30T00:08:47;7.10;99.90
14723;DHT22;7452;55.594;12.986;2023-04-30T00:11:14;7.00;99.90
14723;DHT22;7452;55.594;12.986;2023-04-30T00:13:41;7.00;99.90
14723;DHT22;7452;55.594;12.986;2023-04-30T00:16:08;7.00;99.90
14723;DHT22;7452;55.594;12.986;2023-04-30T00:18:35;7.00;99.90
14723;DHT22;7452;55.594;12.986;2023-04-30T00:21:02;7.00;99.90
14723;DHT22;7452;55.594;12.986;2023-04-30T00:23:30;6.90;99.90
14723;DHT22;7452;55.594;12.986;2023-04-30T00:25:58;6.90;99.90
14723;DHT22;7452;55.594;12.986;2023-04-30T00:28:25;6.90;99.90
14723;DHT22;7452;55.594;12.986;2023-04-30T00:30:51;6.90;99.90
14723;DHT22;7452;55.594;12.986;2023-04-30T00:33:19;6.90;99.90
14723;DHT22;7452;55.594;12.986;2023-04-30T00:35:46;6.80;99.90
14723;DHT22;7452;55.594;12.986;2023-04-30T00:38:13;6.80;99.90
14723;DHT22;7452;55.594;12.986;2023-04-30T00:40:40;6.80;99.90
14723;DHT22;7452;55.594;12.986;2023-04-30T00:43:09;6.80;99.90
14723;DHT22;7452;55.594;12.986;2023-04-30T00:45:36;6.70;99.90
14723;DHT22;7452;55.594;12.986;2023-04-30T00:48:03;6.70;99.90
14723;DHT22;7452;55.594;12.986;2023-04-30T00:50:30;6.70;99.90
14723;DHT22;7452;55.594;12.986;2023-04-30T00:52:57;6.70;99.90
14723;DHT22;7452;55.594;12.986;2023-04-30T00:55:25;6.70;99.90
14723;DHT22;7452;55.594;12.986;2023-04-30T00:57:53;6.70;99.90
14723;DHT22;7452;55.594;12.986;2023-04-30T01:00:22;6.60;99.90
14723;DHT22;7452;55.594;12.986;2023-04-30T01:02:49;6.70;99.90
14723;DHT22;7452;55.594;12.986;2023-04-30T01:05:16;6.60;99.90
14723;DHT22;7452;55.594;12.986;2023-04-30T01:07:44;6.60;99.90
14723;DHT22;7452;55.594;12.986;2023-04-30T01:10:12;6.60;99.90
14723;DHT22;7452;55.594;12.986;2023-04-30T01:12:45;6.50;99.90
14723;DHT22;7452;55.594;12.986;2023-04-30T01:15:20;6.60;99.90
14723;DHT22;7452;55.594;12.986;2023-04-30T01:17:55;6.60;99.90
14723;DHT22;7452;55.594;12.986;2023-04-30T01:20:23;6.60;99.90
14723;DHT22;7452;55.594;12.986;2023-04-30T01:22:54;6.50;99.90
14723;DHT22;7452;55.594;12.986;2023-04-30T01:25:43;6.60;99.90
14723;DHT22;7452;55.594;12.986;2023-04-30T01:28:14;6.60;99.90
14723;DHT22;7452;55.594;12.986;2023-04-30T01:30:42;6.60;99.90
14723;DHT22;7452;55.594;12.986;2023-04-30T01:33:10;6.50;99.90
14723;DHT22;7452;55.594;12.986;2023-04-30T01:39:02;6.50;99.90
14723;DHT22;7452;55.594;12.986;2023-04-30T01:41:36;6.50;99.90
14723;DHT22;7452;55.594;12.986;2023-04-30T01:44:21;6.40;99.90
14723;DHT22;7452;55.594;12.986;2023-04-30T01:46:57;6.40;99.90
14723;DHT22;7452;55.594;12.986;2023-04-30T01:49:31;6.40;99.90
14723;DHT22;7452;55.594;12.986;2023-04-30T01:52:08;6.40;99.90
14723;DHT22;7452;55.594;12.986;2023-04-30T01:54:44;6.40;99.90
14723;DHT22;7452;55.594;12.986;2023-04-30T01:57:15;6.40;99.90
14723;DHT22;7452;55.594;12.986;2023-04-30T01:59:45;6.40;99.90
14723;DHT22;7452;55.594;12.986;2023-04-30T02:02:13;6.40;99.90
14723;DHT22;7452;55.594;12.986;2023-04-30T02:04:40;6.40;99.90
14723;DHT22;7452;55.594;12.986;2023-04-30T02:07:07;6.40;99.90
14723;DHT22;7452;55.594;12.986;2023-04-30T02:09:34;6.30;99.90
14723;DHT22;7452;55.594;12.986;2023-04-30T02:12:01;6.30;99.90
14723;DHT22;7452;55.594;12.986;2023-04-30T02:14:30;6.30;99.90
14723;DHT22;7452;55.594;12.986;2023-04-30T02:16:59;6.30;99.90
14723;DHT22;7452;55.594;12.986;2023-04-30T02:19:26;6.30;99.90
14723;DHT22;7452;55.594;12.986;2023-04-30T02:21:52;6.30;99.90
14723;DHT22;7452;55.594;12.986;2023-04-30T02:24:19;6.20;99.90
14723;DHT22;7452;55.594;12.986;2023-04-30T02:26:46;6.20;99.90
14723;DHT22;7452;55.594;12.986;2023-04-30T02:29:13;6.20;99.90
14723;DHT22;7452;55.594;12.986;2023-04-30T02:31:41;6.30;99.90
14723;DHT22;7452;55.594;12.986;2023-04-30T02:34:10;6.20;99.90
14723;DHT22;7452;55.594;12.986;2023-04-30T02:36:37;6.20;99.90
14723;DHT22;7452;55.594;12.986;2023-04-30T02:39:04;6.20;99.90
14723;DHT22;7452;55.594;12.986;2023-04-30T02:41:31;6.10;99.90
14723;DHT22;7452;55.594;12.986;2023-04-30T02:43:57;6.10;99.90
14723;DHT22;7452;55.594;12.986;2023-04-30T02:46:24;6.10;99.90
14723;DHT22;7452;55.594;12.986;2023-04-30T02:48:51;6.20;99.90
14723;DHT22;7452;55.594;12.986;2023-04-30T02:51:20;6.10;99.90
14723;DHT22;7452;55.594;12.986;2023-04-30T02:53:46;6.10;99.90
14723;DHT22;7452;55.594;12.986;2023-04-30T02:56:14;6.10;99.90
14723;DHT22;7452;55.594;12.986;2023-04-30T02:58:41;6.10;99.90
14723;DHT22;7452;55.594;12.986;2023-04-30T03:01:08;6.00;99.90
14723;DHT22;7452;55.594;12.986;2023-04-30T03:03:35;6.00;99.90
14723;DHT22;7452;55.594;12.986;2023-04-30T03:06:01;6.00;99.90
14723;DHT22;7452;55.594;12.986;2023-04-30T03:08:30;6.10;99.90
14723;DHT22;7452;55.594;12.986;2023-04-30T03:10:57;6.10;99.90
14723;DHT22;7452;55.594;12.986;2023-04-30T03:13:24;6.00;99.90
14723;DHT22;7452;55.594;12.986;2023-04-30T03:15:56;6.00;99.90
14723;DHT22;7452;55.594;12.986;2023-04-30T03:18:24;6.00;99.90
14723;DHT22;7452;55.594;12.986;2023-04-30T03:20:50;6.00;99.90
14723;DHT22;7452;55.594;12.986;2023-04-30T03:23:17;5.90;99.90
14723;DHT22;7452;55.594;12.986;2023-04-30T03:25:46;5.90;99.90
14723;DHT22;7452;55.594;12.986;2023-04-30T03:28:13;5.90;99.90
14723;DHT22;7452;55.594;12.986;2023-04-30T03:30:40;5.90;99.90
14723;DHT22;7452;55.594;12.986;2023-04-30T03:33:07;5.90;99.90
14723;DHT22;7452;55.594;12.986;2023-04-30T03:35:34;5.90;99.90
14723;DHT22;7452;55.594;12.986;2023-04-30T03:38:01;5.90;99.90
14723;DHT22;7452;55.594;12.986;2023-04-30T03:40:28;5.90;99.90
14723;DHT22;7452;55.594;12.986;2023-04-30T03:42:56;5.90;99.90
14723;DHT22;7452;55.594;12.986;2023-04-30T03:45:23;5.90;99.90
14723;DHT22;7452;55.594;12.986;2023-04-30T03:47:51;5.90;99.90
14723;DHT22;7452;55.594;12.986;2023-04-30T03:50:18;5.90;99.90
14723;DHT22;7452;55.594;12.986;2023-04-30T03:52:45;5.90;99.90
14723;DHT22;7452;55.594;12.986;2023-04-30T03:55:12;5.90;99.90
14723;DHT22;7452;55.594;12.986;2023-04-30T03:57:39;5.90;99.90
14723;DHT22;7452;55.594;12.986;2023-04-30T04:00:08;5.90;99.90
14723;DHT22;7452;55.594;12.986;2023-04-30T04:02:36;5.90;99.90
14723;DHT22;7452;55.594;12.986;2023-04-30T04:05:03;5.90;99.90
14723;DHT22;7452;55.594;12.986;2023-04-30T04:07:30;5.90;99.90
14723;DHT22;7452;55.594;12.986;2023-04-30T04:09:57;5.90;99.90
14723;DHT22;7452;55.594;12.986;2023-04-30T04:12:24;6.00;99.90
14723;DHT22;7452;55.594;12.986;2023-04-30T04:14:53;5.90;99.90
14723;DHT22;7452;55.594;12.986;2023-04-30T04:17:22;5.90;99.90
14723;DHT22;7452;55.594;12.986;2023-04-30T04:19:49;5.90;99.90
14723;DHT22;7452;55.594;12.986;2023-04-30T04:22:15;5.90;99.90
14723;DHT22;7452;55.594;12.986;2023-04-30T04:24:42;5.90;99.90
14723;DHT22;7452;55.594;12.986;2023-04-30T04:27:10;5.90;99.90
14723;DHT22;7452;55.594;12.986;2023-04-30T04:29:37;5.90;99.90
14723;DHT22;7452;55.594;12.986;2023-04-30T04:32:04;6.00;99.90
14723;DHT22;7452;55.594;12.986;2023-04-30T04:34:33;5.90;99.90
14723;DHT22;7452;55.594;12.986;2023-04-30T04:36:59;5.90;99.90
14723;DHT22;7452;55.594;12.986;2023-04-30T04:39:27;5.90;99.90
14723;DHT22;7452;55.594;12.986;2023-04-30T04:41:54;5.90;99.90
14723;DHT22;7452;55.594;12.986;2023-04-30T04:44:22;5.90;99.90
14723;DHT22;7452;55.594;12.986;2023-04-30T04:46:49;6.00;99.90
14723;DHT22;7452;55.594;12.986;2023-04-30T04:49:18;6.00;99.90
14723;DHT22;7452;55.594;12.986;2023-04-30T04:51:47;6.00;99.90
14723;DHT22;7452;55.594;12.986;2023-04-30T04:54:13;6.10;99.90
14723;DHT22;7452;55.594;12.986;2023-04-30T04:56:40;6.10;99.90
14723;DHT22;7452;55.594;12.986;2023-04-30T04:59:07;6.20;99.90
14723;DHT22;7452;55.594;12.986;2023-04-30T05:01:34;6.20;99.90
14723;DHT22;7452;55.594;12.986;2023-04-30T05:04:01;6.20;99.90
14723;DHT22;7452;55.594;12.986;2023-04-30T05:06:28;6.20;99.90
14723;DHT22;7452;55.594;12.986;2023-04-30T05:08:56;6.20;99.90
14723;DHT22;7452;55.594;12.986;2023-04-30T05:11:23;6.20;99.90
14723;DHT22;7452;55.594;12.986;2023-04-30T05:13:50;6.20;99.90
14723;DHT22;7452;55.594;12.986;2023-04-30T05:16:17;6.20;99.90
14723;DHT22;7452;55.594;12.986;2023-04-30T05:18:44;6.30;99.90
14723;DHT22;7452;55.594;12.986;2023-04-30T05:21:11;6.30;99.90
14723;DHT22;7452;55.594;12.986;2023-04-30T05:23:38;6.30;99.90
14723;DHT22;7452;55.594;12.986;2023-04-30T05:26:06;6.40;99.90
14723;DHT22;7452;55.594;12.986;2023-04-30T05:28:33;6.40;99.90
14723;DHT22;7452;55.594;12.986;2023-04-30T05:31:00;6.50;99.90
14723;DHT22;7452;55.594;12.986;2023-04-30T05:33:27;6.50;99.90
14723;DHT22;7452;55.594;12.986;2023-04-30T05:35:54;6.60;99.90
14723;DHT22;7452;55.594;12.986;2023-04-30T05:38:21;6.60;99.90
14723;DHT22;7452;55.594;12.986;2023-04-30T05:40:48;6.70;99.90
14723;DHT22;7452;55.594;12.986;2023-04-30T05:43:16;6.80;99.90
14723;DHT22;7452;55.594;12.986;2023-04-30T05:45:43;6.80;99.90
14723;DHT22;7452;55.594;12.986;2023-04-30T05:48:10;6.90;99.90
14723;DHT22;7452;55.594;12.986;2023-04-30T05:50:37;7.00;99.90
14723;DHT22;7452;55.594;12.986;2023-04-30T05:53:04;7.00;99.90
14723;DHT22;7452;55.594;12.986;2023-04-30T05:55:31;7.00;99.90
14723;DHT22;7452;55.594;12.986;2023-04-30T05:57:58;7.10;99.90
14723;DHT22;7452;55.594;12.986;2023-04-30T06:00:26;7.10;99.90
14723;DHT22;7452;55.594;12.986;2023-04-30T06:02:53;7.10;99.90
14723;DHT22;7452;55.594;12.986;2023-04-30T06:05:20;7.20;99.90
14723;DHT22;7452;55.594;12.986;2023-04-30T06:07:47;7.30;99.90
14723;DHT22;7452;55.594;12.986;2023-04-30T06:10:14;7.30;99.90
14723;DHT22;7452;55.594;12.986;2023-04-30T06:12:41;7.40;99.90
14723;DHT22;7452;55.594;12.986;2023-04-30T06:15:08;7.40;99.90
14723;DHT22;7452;55.594;12.986;2023-04-30T06:17:37;7.40;99.90
14723;DHT22;7452;55.594;12.986;2023-04-30T06:20:05;7.60;99.90
14723;DHT22;7452;55.594;12.986;2023-04-30T06:22:33;7.60;99.90
14723;DHT22;7452;55.594;12.986;2023-04-30T06:24:59;7.70;99.90
14723;DHT22;7452;55.594;12.986;2023-04-30T06:27:26;7.70;99.90
14723;DHT22;7452;55.594;12.986;2023-04-30T06:29:53;7.70;99.90
14723;DHT22;7452;55.594;12.986;2023-04-30T06:32:20;7.90;99.90
14723;DHT22;7452;55.594;12.986;2023-04-30T06:34:49;7.90;99.90
14723;DHT22;7452;55.594;12.986;2023-04-30T06:37:16;7.90;99.90
14723;DHT22;7452;55.594;12.986;2023-04-30T06:39:43;8.00;99.90
14723;DHT22;7452;55.594;12.986;2023-04-30T06:42:10;8.00;99.90
14723;DHT22;7452;55.594;12.986;2023-04-30T06:44:37;8.10;99.90
14723;DHT22;7452;55.594;12.986;2023-04-30T06:47:04;8.20;99.90
14723;DHT22;7452;55.594;12.986;2023-04-30T06:49:30;8.20;99.90
14723;DHT22;7452;55.594;12.986;2023-04-30T06:51:59;8.30;99.90
14723;DHT22;7452;55.594;12.986;2023-04-30T06:54:26;8.40;99.90
14723;DHT22;7452;55.594;12.986;2023-04-30T06:56:53;8.40;99.90
14723;DHT22;7452;55.594;12.986;2023-04-30T06:59:20;8.50;99.90
14723;DHT22;7452;55.594;12.986;2023-04-30T07:01:46;8.50;99.90
14723;DHT22;7452;55.594;12.986;2023-04-30T07:04:13;8.50;99.90
14723;DHT22;7452;55.594;12.986;2023-04-30T07:06:40;8.60;99.90
14723;DHT22;7452;55.594;12.986;2023-04-30T07:09:08;8.70;99.90
14723;DHT22;7452;55.594;12.986;2023-04-30T07:11:36;8.90;99.90
14723;DHT22;7452;55.594;12.986;2023-04-30T07:14:02;8.90;99.90
14723;DHT22;7452;55.594;12.986;2023-04-30T07:16:31;8.90;99.90
14723;DHT22;7452;55.594;12.986;2023-04-30T07:18:58;9.00;99.90
14723;DHT22;7452;55.594;12.986;2023-04-30T07:21:25;9.10;99.90
14723;DHT22;7452;55.594;12.986;2023-04-30T07:23:52;9.10;99.90
14723;DHT22;7452;55.594;12.986;2023-04-30T07:26:20;9.30;99.90
14723;DHT22;7452;55.594;12.986;2023-04-30T07:28:49;9.40;99.90
14723;DHT22;7452;55.594;12.986;2023-04-30T07:31:16;9.40;99.90
14723;DHT22;7452;55.594;12.986;2023-04-30T07:33:43;9.50;99.90
14723;DHT22;7452;55.594;12.986;2023-04-30T07:36:10;9.60;99.90
14723;DHT22;7452;55.594;12.986;2023-04-30T07:38:37;9.60;99.90
14723;DHT22;7452;55.594;12.986;2023-04-30T07:41:04;9.80;99.90
14723;DHT22;7452;55.594;12.986;2023-04-30T07:43:34;9.90;99.90
14723;DHT22;7452;55.594;12.986;2023-04-30T07:46:02;10.10;99.90
14723;DHT22;7452;55.594;12.986;2023-04-30T07:48:29;10.30;99.90
14723;DHT22;7452;55.594;12.986;2023-04-30T07:50:56;10.30;99.90
14723;DHT22;7452;55.594;12.986;2023-04-30T07:53:23;10.30;99.90
14723;DHT22;7452;55.594;12.986;2023-04-30T07:55:50;10.30;99.90
14723;DHT22;7452;55.594;12.986;2023-04-30T07:58:17;10.30;99.90
14723;DHT22;7452;55.594;12.986;2023-04-30T08:00:45;10.40;99.90
14723;DHT22;7452;55.594;12.986;2023-04-30T08:03:12;10.50;99.90
14723;DHT22;7452;55.594;12.986;2023-04-30T08:05:39;10.60;99.90
14723;DHT22;7452;55.594;12.986;2023-04-30T08:08:06;10.70;99.90
14723;DHT22;7452;55.594;12.986;2023-04-30T08:10:33;10.70;99.90
14723;DHT22;7452;55.594;12.986;2023-04-30T08:13:03;10.80;99.90
14723;DHT22;7452;55.594;12.986;2023-04-30T08:15:30;10.90;99.90
14723;DHT22;7452;55.594;12.986;2023-04-30T08:17:59;10.80;99.90
14723;DHT22;7452;55.594;12.986;2023-04-30T08:20:26;10.80;99.90
14723;DHT22;7452;55.594;12.986;2023-04-30T08:22:53;10.90;99.90
14723;DHT22;7452;55.594;12.986;2023-04-30T08:25:20;11.00;99.90
14723;DHT22;7452;55.594;12.986;2023-04-30T08:27:47;11.20;99.90
14723;DHT22;7452;55.594;12.986;2023-04-30T08:30:14;11.20;99.90
14723;DHT22;7452;55.594;12.986;2023-04-30T08:32:41;11.20;99.90
14723;DHT22;7452;55.594;12.986;2023-04-30T08:35:10;11.30;99.90
14723;DHT22;7452;55.594;12.986;2023-04-30T08:37:37;11.40;99.90
14723;DHT22;7452;55.594;12.986;2023-04-30T08:40:05;11.50;99.90
14723;DHT22;7452;55.594;12.986;2023-04-30T08:42:37;11.60;99.90
14723;DHT22;7452;55.594;12.986;2023-04-30T08:45:10;11.70;99.90
14723;DHT22;7452;55.594;12.986;2023-04-30T08:47:37;11.90;99.90
14723;DHT22;7452;55.594;12.986;2023-04-30T08:50:05;12.00;99.90
14723;DHT22;7452;55.594;12.986;2023-04-30T08:52:35;12.10;99.90
14723;DHT22;7452;55.594;12.986;2023-04-30T08:55:06;12.20;99.90
14723;DHT22;7452;55.594;12.986;2023-04-30T08:57:34;12.40;99.90
14723;DHT22;7452;55.594;12.986;2023-04-30T09:00:01;12.50;99.90
14723;DHT22;7452;55.594;12.986;2023-04-30T09:02:31;12.60;99.90
14723;DHT22;7452;55.594;12.986;2023-04-30T09:04:58;12.70;99.90
14723;DHT22;7452;55.594;12.986;2023-04-30T09:07:26;12.60;99.90
14723;DHT22;7452;55.594;12.986;2023-04-30T09:09:54;12.70;99.90
14723;DHT22;7452;55.594;12.986;2023-04-30T09:12:23;12.80;99.90
14723;DHT22;7452;55.594;12.986;2023-04-30T09:15:08;12.90;99.90
14723;DHT22;7452;55.594;12.986;2023-04-30T09:17:35;13.00;99.90
14723;DHT22;7452;55.594;12.986;2023-04-30T09:20:08;13.10;99.90
14723;DHT22;7452;55.594;12.986;2023-04-30T09:22:36;13.10;99.90
14723;DHT22;7452;55.594;12.986;2023-04-30T09:25:05;13.10;99.90
14723;DHT22;7452;55.594;12.986;2023-04-30T09:27:33;13.10;99.90
14723;DHT22;7452;55.594;12.986;2023-04-30T09:30:00;13.20;99.90
14723;DHT22;7452;55.594;12.986;2023-04-30T09:32:27;13.30;99.90
14723;DHT22;7452;55.594;12.986;2023-04-30T09:34:54;13.40;99.90
14723;DHT22;7452;55.594;12.986;2023-04-30T09:37:21;13.60;99.90
14723;DHT22;7452;55.594;12.986;2023-04-30T09:39:53;13.60;99.90
14723;DHT22;7452;55.594;12.986;2023-04-30T09:42:21;13.80;99.90
14723;DHT22;7452;55.594;12.986;2023-04-30T09:44:49;13.70;99.90
14723;DHT22;7452;55.594;12.986;2023-04-30T09:47:19;14.00;99.90
14723;DHT22;7452;55.594;12.986;2023-04-30T09:49:47;14.20;99.90
14723;DHT22;7452;55.594;12.986;2023-04-30T09:52:17;14.00;99.90
14723;DHT22;7452;55.594;12.986;2023-04-30T09:54:45;14.10;99.90
14723;DHT22;7452;55.594;12.986;2023-04-30T09:57:14;14.20;99.90
14723;DHT22;7452;55.594;12.986;2023-04-30T09:59:44;14.20;99.90
14723;DHT22;7452;55.594;12.986;2023-04-30T10:02:13;14.30;99.90
14723;DHT22;7452;55.594;12.986;2023-04-30T10:04:42;14.50;99.90
14723;DHT22;7452;55.594;12.986;2023-04-30T10:07:12;14.80;99.90
14723;DHT22;7452;55.594;12.986;2023-04-30T10:09:42;14.90;99.90
14723;DHT22;7452;55.594;12.986;2023-04-30T10:12:13;14.90;99.90
14723;DHT22;7452;55.594;12.986;2023-04-30T10:14:47;15.00;99.90
14723;DHT22;7452;55.594;12.986;2023-04-30T10:17:15;15.20;99.90
14723;DHT22;7452;55.594;12.986;2023-04-30T10:19:49;15.40;99.90
14723;DHT22;7452;55.594;12.986;2023-04-30T10:22:18;15.70;99.90
14723;DHT22;7452;55.594;12.986;2023-04-30T10:24:46;16.00;99.90
14723;DHT22;7452;55.594;12.986;2023-04-30T10:27:14;16.30;99.90
14723;DHT22;7452;55.594;12.986;2023-04-30T10:29:43;16.90;99.90
14723;DHT22;7452;55.594;12.986;2023-04-30T10:32:11;17.50;99.90
14723;DHT22;7452;55.594;12.986;2023-04-30T10:34:45;17.50;99.90
14723;DHT22;7452;55.594;12.986;2023-04-30T10:37:20;17.60;99.90
14723;DHT22;7452;55.594;12.986;2023-04-30T10:39:50;18.20;99.90
14723;DHT22;7452;55.594;12.986;2023-04-30T10:42:17;19.00;99.90
14723;DHT22;7452;55.594;12.986;2023-04-30T10:44:45;19.60;99.90
14723;DHT22;7452;55.594;12.986;2023-04-30T10:47:14;20.20;99.90
14723;DHT22;7452;55.594;12.986;2023-04-30T10:49:44;20.90;99.90
14723;DHT22;7452;55.594;12.986;2023-04-30T10:52:12;21.60;99.90
14723;DHT22;7452;55.594;12.986;2023-04-30T10:54:48;22.00;99.90
14723;DHT22;7452;55.594;12.986;2023-04-30T10:57:16;22.30;99.90
14723;DHT22;7452;55.594;12.986;2023-04-30T10:59:53;22.70;99.90
14723;DHT22;7452;55.594;12.986;2023-04-30T11:02:41;22.90;99.90
14723;DHT22;7452;55.594;12.986;2023-04-30T11:05:12;23.30;99.90
14723;DHT22;7452;55.594;12.986;2023-04-30T11:07:46;23.60;99.90
14723;DHT22;7452;55.594;12.986;2023-04-30T11:10:14;23.40;99.90
14723;DHT22;7452;55.594;12.986;2023-04-30T11:12:46;23.40;99.90
14723;DHT22;7452;55.594;12.986;2023-04-30T11:15:16;23.50;99.90
14723;DHT22;7452;55.594;12.986;2023-04-30T11:17:45;23.90;99.90
14723;DHT22;7452;55.594;12.986;2023-04-30T11:20:12;23.90;99.90
14723;DHT22;7452;55.594;12.986;2023-04-30T11:22:40;24.00;99.90
14723;DHT22;7452;55.594;12.986;2023-04-30T11:25:08;24.20;99.90
14723;DHT22;7452;55.594;12.986;2023-04-30T11:27:39;24.00;99.90
14723;DHT22;7452;55.594;12.986;2023-04-30T11:30:11;24.40;99.90
14723;DHT22;7452;55.594;12.986;2023-04-30T11:32:42;24.90;99.90
14723;DHT22;7452;55.594;12.986;2023-04-30T11:35:10;25.00;99.90
14723;DHT22;7452;55.594;12.986;2023-04-30T11:37:39;25.20;99.90
14723;DHT22;7452;55.594;12.986;2023-04-30T11:40:09;25.40;99.90
14723;DHT22;7452;55.594;12.986;2023-04-30T11:42:37;25.20;99.90
14723;DHT22;7452;55.594;12.986;2023-04-30T11:45:06;25.40;99.90
14723;DHT22;7452;55.594;12.986;2023-04-30T11:47:43;25.10;99.90
14723;DHT22;7452;55.594;12.986;2023-04-30T11:50:11;25.60;99.90
14723;DHT22;7452;55.594;12.986;2023-04-30T11:52:39;25.40;99.90
14723;DHT22;7452;55.594;12.986;2023-04-30T11:55:11;24.70;99.90
14723;DHT22;7452;55.594;12.986;2023-04-30T11:57:40;24.30;99.90
14723;DHT22;7452;55.594;12.986;2023-04-30T12:00:10;24.40;99.90
14723;DHT22;7452;55.594;12.986;2023-04-30T12:02:37;24.40;99.90
14723;DHT22;7452;55.594;12.986;2023-04-30T12:05:11;24.30;99.90
14723;DHT22;7452;55.594;12.986;2023-04-30T12:07:43;24.70;99.90
14723;DHT22;7452;55.594;12.986;2023-04-30T12:10:11;25.20;99.60
14723;DHT22;7452;55.594;12.986;2023-04-30T12:12:38;25.40;98.20
14723;DHT22;7452;55.594;12.986;2023-04-30T12:15:13;25.50;99.20
14723;DHT22;7452;55.594;12.986;2023-04-30T12:17:41;25.60;99.40
14723;DHT22;7452;55.594;12.986;2023-04-30T12:20:13;25.90;99.90
14723;DHT22;7452;55.594;12.986;2023-04-30T12:22:41;26.10;99.30
14723;DHT22;7452;55.594;12.986;2023-04-30T12:25:12;26.40;97.70
14723;DHT22;7452;55.594;12.986;2023-04-30T12:27:40;26.00;98.20
14723;DHT22;7452;55.594;12.986;2023-04-30T12:30:09;26.10;98.80
14723;DHT22;7452;55.594;12.986;2023-04-30T12:32:38;26.50;99.90
14723;DHT22;7452;55.594;12.986;2023-04-30T12:35:06;27.00;99.90
14723;DHT22;7452;55.594;12.986;2023-04-30T12:37:34;27.10;99.90
14723;DHT22;7452;55.594;12.986;2023-04-30T12:40:02;27.30;97.50
14723;DHT22;7452;55.594;12.986;2023-04-30T12:42:32;27.20;98.10
14723;DHT22;7452;55.594;12.986;2023-04-30T12:45:00;26.40;96.70
14723;DHT22;7452;55.594;12.986;2023-04-30T12:47:28;25.00;97.10
14723;DHT22;7452;55.594;12.986;2023-04-30T12:49:55;24.10;99.90
14723;DHT22;7452;55.594;12.986;2023-04-30T12:52:24;24.30;99.90
14723;DHT22;7452;55.594;12.986;2023-04-30T12:54:53;25.30;98.90
14723;DHT22;7452;55.594;12.986;2023-04-30T12:57:20;25.80;96.00
14723;DHT22;7452;55.594;12.986;2023-04-30T12:59:57;26.20;99.90
14723;DHT22;7452;55.594;12.986;2023-04-30T13:02:26;26.10;98.20
14723;DHT22;7452;55.594;12.986;2023-04-30T13:04:53;25.50;97.80
14723;DHT22;7452;55.594;12.986;2023-04-30T13:07:21;25.00;95.50
14723;DHT22;7452;55.594;12.986;2023-04-30T13:09:48;23.70;96.70
14723;DHT22;7452;55.594;12.986;2023-04-30T13:12:16;23.60;97.90
14723;DHT22;7452;55.594;12.986;2023-04-30T13:14:43;23.30;96.10
14723;DHT22;7452;55.594;12.986;2023-04-30T13:17:10;23.20;95.80
14723;DHT22;7452;55.594;12.986;2023-04-30T13:19:38;22.80;94.40
14723;DHT22;7452;55.594;12.986;2023-04-30T13:22:05;23.00;99.90
14723;DHT22;7452;55.594;12.986;2023-04-30T13:24:32;23.40;99.90
14723;DHT22;7452;55.594;12.986;2023-04-30T13:26:59;23.90;98.40
14723;DHT22;7452;55.594;12.986;2023-04-30T13:29:28;24.70;99.90
14723;DHT22;7452;55.594;12.986;2023-04-30T13:31:56;25.20;99.90
14723;DHT22;7452;55.594;12.986;2023-04-30T13:34:23;25.30;99.00
14723;DHT22;7452;55.594;12.986;2023-04-30T13:36:50;25.60;98.60
14723;DHT22;7452;55.594;12.986;2023-04-30T13:39:18;25.40;96.90
14723;DHT22;7452;55.594;12.986;2023-04-30T13:41:46;25.60;98.60
14723;DHT22;7452;55.594;12.986;2023-04-30T13:44:13;25.30;98.30
14723;DHT22;7452;55.594;12.986;2023-04-30T13:46:42;25.30;99.60
14723;DHT22;7452;55.594;12.986;2023-04-30T13:49:09;26.00;97.20
14723;DHT22;7452;55.594;12.986;2023-04-30T13:51:36;26.00;97.30
14723;DHT22;7452;55.594;12.986;2023-04-30T13:54:03;26.40;97.90
14723;DHT22;7452;55.594;12.986;2023-04-30T13:56:30;25.70;98.00
14723;DHT22;7452;55.594;12.986;2023-04-30T13:58:57;26.10;98.60
14723;DHT22;7452;55.594;12.986;2023-04-30T14:01:24;26.60;96.80
14723;DHT22;7452;55.594;12.986;2023-04-30T14:03:52;27.40;99.10
14723;DHT22;7452;55.594;12.986;2023-04-30T14:06:19;28.00;96.80
14723;DHT22;7452;55.594;12.986;2023-04-30T14:08:46;28.10;94.00
14723;DHT22;7452;55.594;12.986;2023-04-30T14:11:13;28.20;95.90
14723;DHT22;7452;55.594;12.986;2023-04-30T14:13:40;28.20;94.40
14723;DHT22;7452;55.594;12.986;2023-04-30T14:16:07;28.30;93.30
14723;DHT22;7452;55.594;12.986;2023-04-30T14:18:34;28.30;93.50
14723;DHT22;7452;55.594;12.986;2023-04-30T14:21:03;28.10;94.10
14723;DHT22;7452;55.594;12.986;2023-04-30T14:23:30;28.00;96.50
14723;DHT22;7452;55.594;12.986;2023-04-30T14:25:56;28.30;93.90
14723;DHT22;7452;55.594;12.986;2023-04-30T14:28:23;28.30;94.50
14723;DHT22;7452;55.594;12.986;2023-04-30T14:30:50;28.30;92.70
14723;DHT22;7452;55.594;12.986;2023-04-30T14:33:17;27.90;92.60
14723;DHT22;7452;55.594;12.986;2023-04-30T14:35:44;27.60;94.10
14723;DHT22;7452;55.594;12.986;2023-04-30T14:38:13;27.40;92.10
14723;DHT22;7452;55.594;12.986;2023-04-30T14:40:42;27.30;94.90
14723;DHT22;7452;55.594;12.986;2023-04-30T14:43:09;27.70;94.40
14723;DHT22;7452;55.594;12.986;2023-04-30T14:45:36;27.50;94.90
14723;DHT22;7452;55.594;12.986;2023-04-30T14:48:04;28.00;93.80
14723;DHT22;7452;55.594;12.986;2023-04-30T14:50:31;27.90;91.40
14723;DHT22;7452;55.594;12.986;2023-04-30T14:52:58;27.60;92.40
14723;DHT22;7452;55.594;12.986;2023-04-30T14:55:27;27.50;92.30
14723;DHT22;7452;55.594;12.986;2023-04-30T14:57:53;27.40;92.00
14723;DHT22;7452;55.594;12.986;2023-04-30T15:00:20;27.10;89.70
14723;DHT22;7452;55.594;12.986;2023-04-30T15:02:47;27.10;90.70
14723;DHT22;7452;55.594;12.986;2023-04-30T15:05:14;26.80;90.10
14723;DHT22;7452;55.594;12.986;2023-04-30T15:07:41;26.00;91.70
14723;DHT22;7452;55.594;12.986;2023-04-30T15:10:09;25.20;92.20
14723;DHT22;7452;55.594;12.986;2023-04-30T15:12:37;24.40;92.90
14723;DHT22;7452;55.594;12.986;2023-04-30T15:15:05;23.90;92.60
14723;DHT22;7452;55.594;12.986;2023-04-30T15:17:32;23.50;93.50
14723;DHT22;7452;55.594;12.986;2023-04-30T15:20:01;23.30;94.20
14723;DHT22;7452;55.594;12.986;2023-04-30T15:22:28;23.60;92.90
14723;DHT22;7452;55.594;12.986;2023-04-30T15:24:55;24.20;93.10
14723;DHT22;7452;55.594;12.986;2023-04-30T15:27:22;24.90;91.50
14723;DHT22;7452;55.594;12.986;2023-04-30T15:29:50;25.10;91.10
14723;DHT22;7452;55.594;12.986;2023-04-30T15:32:17;25.10;91.60
14723;DHT22;7452;55.594;12.986;2023-04-30T15:34:44;24.80;91.90
14723;DHT22;7452;55.594;12.986;2023-04-30T15:37:11;24.30;92.90
14723;DHT22;7452;55.594;12.986;2023-04-30T15:39:38;23.90;92.90
14723;DHT22;7452;55.594;12.986;2023-04-30T15:42:05;24.00;92.40
14723;DHT22;7452;55.594;12.986;2023-04-30T15:44:32;24.10;93.10
14723;DHT22;7452;55.594;12.986;2023-04-30T15:47:00;24.20;93.20